Terminal Aerodrome Forecast
Issued by NWS La Crosse, WI

Home | Current Version | Previous Version | Text Only | Print | Product List | Glossary On
Versions: 1 2 3 4 5 6 7 8 9 10 11 12 13 14 15 16 17 18 19 20 21 22 23 24 25 26 27 28 29 30
000
FTUS43 KARX 291741
TAFLSE
TAF
KLSE 291741Z 2918/3018 18012G18KT P6SM SCT020 SCT150
     FM292300 20007KT P6SM VCSH SCT030 BKN060
     FM300100 VRB05KT 5SM SHRA SCT015 BKN025
      TEMPO 3001/3005 2SM +TSRA BR OVC015CB
     FM300500 26004KT 3SM -SHRA BR OVC015
     FM300900 28005KT 1SM BR OVC008
     FM301600 29006KT 4SM BR BKN022=

USA.gov is the U.S. government's official web portal to all federal, state and local government web resources and services.